Accueil
METAR-TAF:

METAR-TAF

Aéroports :

Passo Rolle, Italie

latitude: 46-18N, longitude: 011-47E, altitude: 2004 m

Observation

Le bulletin a été fait il y a 40 minutes, à 13:55 UTC
Vent 9 kt de nord/nord-ouest
Température -6°C
Humidité 79%
Pression 995 hPa
Visibilité 10 km ou plus
Ciel couvert à une hauteur de 2000 ft

METAR: LIVR 121355Z 33009KT 9999 OVC020 M06/M09 Q0995 RMK OVC MON GEN INC VIS MIN 9999

Heure: 15:35 (14:35 UTC)


TAF: absent

Observations et prévisions météorologiques de plus de 4000 aéroports (messages METAR et TAF).

Les stations disponibles sont représentées par des disques jaunes et rouges sur la carte.

Passer la souris dessus pour voir le nom de la station.

Cliquer dessus pour voir les observations et prévisions météorologiques.

Pour changer de carte: cliquez sur les boutons verts avec une croix noire pour zoomer, sur le bouton vert avec un tiret pour effectuer un zoom arrière, ou sur les flèches vertes pour les cartes adjacentes.


METAR-TAF: